KOUN/OUN METAR and TAF weather

Enter ICAO airport designator
Station Type Date Time Source
KOUN METAR 2021/03/06 03:55 UTC NOAA

KOUN 060355Z AUTO 05007KT 10SM CLR 08/04 A3027 RMK AO2 T00750039


Station Type Date Time Source
KOUN Decoded METAR 2021/03/06 03:55 UTC NOAA

Norman / Max Westheimer, OK, United States (KOUN) 35-13N 097-27W 357M
Mar 05, 2021 - 10:55 PM EST / 2021.03.06 0355 UTC
Wind: from the NE (050 degrees) at 8 MPH (7 KT):0
Visibility: 10 mile(s):0
Sky conditions: clear
Temperature: 45.5 F (7.5 C)
Dew Point: 39.0 F (3.9 C)
Relative Humidity: 77%
Pressure (altimeter): 30.27 in. Hg (1025 hPa)
ob: KOUN 060355Z AUTO 05007KT 10SM CLR 08/04 A3027 RMK AO2 T00750039
cycle: 4

Station Type Date Time Source
KOUN TAF 2021/03/05 18:22 UTC NOAA

TAF KOUN 051720Z 0518/0618 03015G24KT P6SM BKN050 OVC080
FM060100 01009KT P6SM BKN080
FM060900 VRB03KT 4SM BR FEW015

Example: see airport list